KINS

Details ICAO KINS (INS)
Name CREECH AFB
Region United States
Timezone America/Los_Angeles (UTC-7.0)
Plans Departing 6
Arriving 4
Stats Elevation 3,133 ft / 955 m (AMSL)
Location 36.586675° -115.676579°
Runways 2
Magnetic Variation 11.952° E
Sunrise 2017-03-25 13:39:39 UTC / 2017-03-25 06:39:39 Local
Sunset 2017-03-26 01:59:54 UTC / 2017-03-25 18:59:54 Local
Advertisement - Login to hide

Runways

ID Width Length Bearing (true) Bearing (mag) Surface Threshold Offset Overrun Length
08 150 ft / 46 m 8,984 ft / 2,738 m 92.33° 80.38° Asphalt 0 ft / 0 m 1,000 ft / 305 m
13 100 ft / 30 m 4,896 ft / 1,492 m 145.01° 133.06° Asphalt 468 ft / 143 m 450 ft / 137 m
26 150 ft / 46 m 8,984 ft / 2,738 m 272.35° 260.40° Asphalt 0 ft / 0 m 1,000 ft / 305 m
31 100 ft / 30 m 4,896 ft / 1,492 m 325.02° 313.07° Asphalt 0 ft / 0 m 300 ft / 91 m

Map

Weather

Temperature
Clouds and Precipitation
Forecast for 2017-03-26 06:00 UTC. Updated a minute ago
Winds

METAR

KINS 260058Z AUTO 28008KT 10SM FEW070 18/M01 A2994 RMK AO2 SLP110 T01821011 $

TAF

TAF TAF AMD KINS 252006Z 2520/2621 30009KT 9999 SCT025 BKN030 BKN080 620801 QNH2988INS BECMG 2604/2605 VRB05KT 9999 SCT050 QNH2994INS BECMG 2614/2615 VRB05KT 9999 FEW100 SCT200 QNH2992INS TX21/2521Z TN09/2611Z LAST NO AMDS AFT 2520 NEXT 2707

Frequencies

Recorded 121.12 MHz ASOS
Tower 118.30 MHz TWR
Ground 118.30 MHz GND
Warning: Do not use this data for real-world aviation or navigation. No guarantee of current accuracy is given.